createdAt,value
2023-09-20T00:02:14.575Z,100223.28
2023-09-20T00:04:43.432Z,100221.81
2023-09-20T00:07:11.648Z,100209.94
2023-09-20T00:09:39.899Z,100211.19
2023-09-20T00:12:08.375Z,100207.16
2023-09-20T00:14:36.544Z,100201.19
2023-09-20T00:17:04.530Z,100205.78
2023-09-20T00:19:34.211Z,100197.34
2023-09-20T00:22:02.393Z,100192.81
2023-09-20T00:24:30.170Z,100184.72
2023-09-20T00:26:58.488Z,100178.41
2023-09-20T00:29:27.906Z,100180.19
2023-09-20T00:31:56.910Z,100183.53
2023-09-20T00:34:25.098Z,100173.97
2023-09-20T00:36:54.298Z,100172.19
2023-09-20T00:39:22.006Z,100172.41
2023-09-20T00:41:51.132Z,100169.16
2023-09-20T00:44:20.253Z,100173.91
2023-09-20T00:46:48.786Z,100175.41
2023-09-20T00:49:17.726Z,100175.00
2023-09-20T00:51:48.245Z,100175.13
2023-09-20T00:54:18.757Z,100174.56
2023-09-20T00:56:46.877Z,100182.97
2023-09-20T00:59:16.206Z,100181.41
2023-09-20T01:01:44.214Z,100181.28
2023-09-20T01:04:13.291Z,100183.91
2023-09-20T01:06:42.802Z,100182.25
2023-09-20T01:09:11.162Z,100181.41
2023-09-20T01:11:41.623Z,100176.25
2023-09-20T01:14:09.835Z,100170.38
2023-09-20T01:16:37.718Z,100178.50
2023-09-20T01:19:06.156Z,100178.50
2023-09-20T01:21:44.246Z,100179.34
2023-09-20T01:24:13.250Z,100174.28
2023-09-20T01:26:42.908Z,100174.06
2023-09-20T01:29:13.219Z,100172.06
2023-09-20T01:31:41.235Z,100181.50
2023-09-20T01:34:09.023Z,100183.75
2023-09-20T01:36:38.030Z,100178.91
2023-09-20T01:39:10.588Z,100177.38
2023-09-20T01:41:39.022Z,100183.56
2023-09-20T01:44:08.321Z,100185.56
2023-09-20T01:46:38.400Z,100174.44
2023-09-20T01:49:07.795Z,100180.47
2023-09-20T01:51:35.852Z,100183.31
2023-09-20T01:54:04.940Z,100179.09
2023-09-20T01:56:34.042Z,100167.41
2023-09-20T01:59:01.863Z,100168.34
2023-09-20T02:01:30.391Z,100165.00
2023-09-20T02:03:58.425Z,100167.63
2023-09-20T02:06:26.286Z,100163.00
2023-09-20T02:08:54.421Z,100158.59
2023-09-20T02:11:22.659Z,100157.00
2023-09-20T02:13:51.865Z,100161.84
2023-09-20T02:16:19.651Z,100167.31
2023-09-20T02:18:49.443Z,100171.22
2023-09-20T02:21:18.197Z,100175.75
2023-09-20T02:23:47.550Z,100168.81
2023-09-20T02:26:15.327Z,100171.84
2023-09-20T02:28:43.636Z,100174.06
2023-09-20T02:31:13.628Z,100164.50
2023-09-20T02:33:41.479Z,100166.28
2023-09-20T02:36:13.374Z,100166.28
2023-09-20T02:38:41.316Z,100167.44
2023-09-20T02:41:10.028Z,100163.03
2023-09-20T02:43:39.209Z,100155.06
2023-09-20T02:46:08.435Z,100152.44
2023-09-20T02:48:37.611Z,100147.28
2023-09-20T02:51:06.541Z,100152.81
2023-09-20T02:53:36.906Z,100149.47
2023-09-20T02:56:06.597Z,100151.56
2023-09-20T02:58:34.913Z,100155.97
2023-09-20T03:01:03.516Z,100145.38
2023-09-20T03:03:31.682Z,100148.19
2023-09-20T03:06:10.126Z,100149.16
2023-09-20T03:08:43.033Z,100146.53
2023-09-20T03:11:11.113Z,100140.44
2023-09-20T03:13:39.058Z,100131.72
2023-09-20T03:16:06.817Z,100144.09
2023-09-20T03:18:35.457Z,100126.69
2023-09-20T03:21:11.488Z,100138.34
2023-09-20T03:23:41.176Z,100123.53
2023-09-20T03:26:10.779Z,100127.00
2023-09-20T03:28:39.246Z,100124.78
2023-09-20T03:31:11.403Z,100127.41
2023-09-20T03:33:39.950Z,100110.81
2023-09-20T03:36:16.896Z,100110.94
2023-09-20T03:38:48.723Z,100105.56
2023-09-20T03:41:16.626Z,100112.63
2023-09-20T03:43:46.711Z,100114.28
2023-09-20T03:46:15.773Z,100104.53
2023-09-20T03:48:45.726Z,100101.38
2023-09-20T03:51:18.437Z,100107.69
2023-09-20T03:53:47.397Z,100112.66
2023-09-20T03:56:21.007Z,100120.28
2023-09-20T03:58:50.411Z,100116.81
2023-09-20T04:01:18.418Z,100121.88
2023-09-20T04:03:46.866Z,100127.22
2023-09-20T04:06:14.903Z,100122.06
2023-09-20T04:08:44.311Z,100113.38
2023-09-20T04:11:13.668Z,100115.38
2023-09-20T04:13:41.762Z,100111.50
2023-09-20T04:16:09.702Z,100121.66
2023-09-20T04:18:38.430Z,100114.66
2023-09-20T04:21:06.526Z,100108.00
2023-09-20T04:23:34.581Z,100107.63
2023-09-20T04:26:04.958Z,100110.66
2023-09-20T04:28:32.930Z,100100.06
2023-09-20T04:31:01.577Z,100115.28
2023-09-20T04:33:30.565Z,100117.34
2023-09-20T04:35:59.901Z,100118.94
2023-09-20T04:38:29.084Z,100110.88
2023-09-20T04:40:58.048Z,100111.56
2023-09-20T04:43:27.849Z,100103.19
2023-09-20T04:45:56.502Z,100103.84
2023-09-20T04:48:25.527Z,100103.94
2023-09-20T04:50:56.803Z,100098.16
2023-09-20T04:53:25.332Z,100095.53
2023-09-20T04:55:53.040Z,100096.16
2023-09-20T04:58:21.647Z,100090.72
2023-09-20T05:00:50.932Z,100094.81
2023-09-20T05:03:20.809Z,100088.50
2023-09-20T05:05:53.406Z,100090.72
2023-09-20T05:08:21.499Z,100091.66
2023-09-20T05:10:49.359Z,100085.56
2023-09-20T05:13:18.376Z,100098.38
2023-09-20T05:15:47.028Z,100093.44
2023-09-20T05:18:17.216Z,100102.25
2023-09-20T05:20:46.024Z,100095.97
2023-09-20T05:23:14.141Z,100095.75
2023-09-20T05:25:42.012Z,100106.25
2023-09-20T05:28:09.731Z,100107.41
2023-09-20T05:30:37.686Z,100106.47
2023-09-20T05:33:06.234Z,100114.84
2023-09-20T05:35:36.067Z,100097.94
2023-09-20T05:38:04.368Z,100103.94
2023-09-20T05:40:32.757Z,100099.31
2023-09-20T05:43:02.580Z,100100.03
2023-09-20T05:45:30.985Z,100098.66
2023-09-20T05:47:59.285Z,100093.19
2023-09-20T05:50:34.741Z,100096.34
2023-09-20T05:53:07.902Z,100095.50
2023-09-20T05:55:39.057Z,100096.97
2023-09-20T05:58:07.309Z,100086.25
2023-09-20T06:00:36.586Z,100090.22
2023-09-20T06:03:05.931Z,100092.25
2023-09-20T06:05:36.727Z,100097.25
2023-09-20T06:08:08.302Z,100101.34
2023-09-20T06:10:36.898Z,100103.84
2023-09-20T06:13:06.575Z,100104.69
2023-09-20T06:15:34.364Z,100099.34
2023-09-20T06:18:02.209Z,100099.78
2023-09-20T06:20:29.997Z,100095.34
2023-09-20T06:22:58.050Z,100084.63
2023-09-20T06:25:27.888Z,100092.19
2023-09-20T06:27:55.910Z,100087.78
2023-09-20T06:30:25.571Z,100089.69
2023-09-20T06:32:53.905Z,100093.03
2023-09-20T06:35:23.684Z,100091.84
2023-09-20T06:37:52.766Z,100091.44
2023-09-20T06:40:24.033Z,100089.75
2023-09-20T06:42:53.183Z,100082.25
2023-09-20T06:45:22.092Z,100076.31
2023-09-20T06:47:51.007Z,100072.19
2023-09-20T06:50:19.140Z,100067.97
2023-09-20T06:52:48.048Z,100074.59
2023-09-20T06:55:19.015Z,100074.16
2023-09-20T06:57:48.916Z,100070.94
2023-09-20T07:00:28.222Z,100072.50
2023-09-20T07:02:58.212Z,100069.06
2023-09-20T07:05:29.321Z,100075.78
2023-09-20T07:07:59.512Z,100076.16
2023-09-20T07:10:30.578Z,100076.28
2023-09-20T07:12:58.601Z,100069.66
2023-09-20T07:15:29.407Z,100073.03
2023-09-20T07:18:12.724Z,100068.94
2023-09-20T07:20:42.434Z,100063.09
2023-09-20T07:23:14.382Z,100067.41
2023-09-20T07:25:44.331Z,100069.94
2023-09-20T07:28:12.607Z,100069.50
2023-09-20T07:30:46.709Z,100064.81
2023-09-20T07:33:21.171Z,100071.28
2023-09-20T07:36:00.349Z,100072.34
2023-09-20T07:38:40.016Z,100067.31
2023-09-20T07:41:11.920Z,100071.88
2023-09-20T07:43:40.446Z,100057.25
2023-09-20T07:46:10.281Z,100058.91
2023-09-20T07:48:45.293Z,100063.94
2023-09-20T07:51:17.586Z,100053.75
2023-09-20T07:53:46.068Z,100053.97
2023-09-20T07:56:15.124Z,100055.44
2023-09-20T07:58:45.562Z,100043.53
2023-09-20T08:01:18.294Z,100037.81
2023-09-20T08:03:52.498Z,100030.19
2023-09-20T08:06:21.327Z,100027.97
2023-09-20T08:08:49.860Z,100032.47
2023-09-20T08:11:20.731Z,100029.72
2023-09-20T08:13:51.406Z,100028.69
2023-09-20T08:16:21.327Z,100032.06
2023-09-20T08:19:10.898Z,100032.13
2023-09-20T08:21:40.039Z,100029.56
2023-09-20T08:24:25.630Z,100024.88
2023-09-20T08:27:12.159Z,100023.84
2023-09-20T08:30:00.180Z,100026.72
2023-09-20T08:32:47.661Z,100014.19
2023-09-20T08:35:33.115Z,100006.88
2023-09-20T08:38:18.465Z,99999.00
2023-09-20T08:41:04.045Z,99988.56
2023-09-20T08:43:49.646Z,99991.47
2023-09-20T08:46:36.572Z,100004.56
2023-09-20T08:49:24.456Z,100007.59
2023-09-20T08:52:13.729Z,100005.97
2023-09-20T08:54:59.703Z,100001.75
2023-09-20T08:57:47.231Z,100008.19
2023-09-20T09:00:23.791Z,99992.88
2023-09-20T09:02:55.576Z,99996.75
2023-09-20T09:05:27.348Z,99992.63
2023-09-20T09:07:56.278Z,99986.78
2023-09-20T09:10:24.054Z,99976.75
2023-09-20T09:12:51.752Z,99971.75
2023-09-20T09:15:19.929Z,99982.34
2023-09-20T09:17:49.700Z,99992.16
2023-09-20T09:20:20.603Z,99986.19
2023-09-20T09:22:51.553Z,99985.16
2023-09-20T09:25:21.903Z,99948.50
2023-09-20T09:27:49.662Z,99949.88
2023-09-20T09:30:19.693Z,99950.31
2023-09-20T09:32:49.179Z,99943.53
2023-09-20T09:35:27.537Z,99936.31
2023-09-20T09:38:03.345Z,99930.94
2023-09-20T09:40:32.116Z,99948.41
2023-09-20T09:43:13.074Z,99961.13
2023-09-20T09:45:40.960Z,99963.28
2023-09-20T09:48:09.092Z,99960.13
2023-09-20T09:50:41.777Z,99961.84
2023-09-20T09:53:11.684Z,99964.91
2023-09-20T09:55:40.437Z,99965.31
2023-09-20T09:58:10.149Z,99953.47
2023-09-20T10:00:41.889Z,99941.84
2023-09-20T10:03:17.490Z,99946.50
2023-09-20T10:05:48.087Z,99940.31
2023-09-20T10:08:23.094Z,99934.50
2023-09-20T10:10:51.943Z,99921.25
2023-09-20T10:13:19.818Z,99918.88
2023-09-20T10:15:47.847Z,99907.75
2023-09-20T10:18:15.728Z,99906.53
2023-09-20T10:20:59.072Z,99902.31
2023-09-20T10:23:28.494Z,99894.38
2023-09-20T10:26:01.910Z,99880.94
2023-09-20T10:28:38.918Z,99880.59
2023-09-20T10:31:08.070Z,99873.81
2023-09-20T10:33:46.220Z,99867.22
2023-09-20T10:36:16.237Z,99874.09
2023-09-20T10:38:47.357Z,99874.19
2023-09-20T10:41:16.565Z,99873.72
2023-09-20T10:43:49.910Z,99871.00
2023-09-20T10:46:20.334Z,99874.31
2023-09-20T10:48:51.220Z,99865.50
2023-09-20T10:51:44.808Z,99856.16
2023-09-20T10:54:30.810Z,99853.41
2023-09-20T10:59:33.340Z,99842.94
2023-09-20T11:02:10.957Z,99837.34
2023-09-20T11:04:40.374Z,99828.34
2023-09-20T11:07:10.512Z,99830.50
2023-09-20T11:09:40.474Z,99828.34
2023-09-20T11:12:09.717Z,99827.50
2023-09-20T11:14:41.094Z,99829.91
2023-09-20T11:17:10.461Z,99830.59
2023-09-20T11:19:41.190Z,99815.69
2023-09-20T11:22:09.115Z,99808.88
2023-09-20T11:24:42.872Z,99805.50
2023-09-20T11:27:12.959Z,99787.00
2023-09-20T11:29:45.330Z,99772.06
2023-09-20T11:32:13.444Z,99763.47
2023-09-20T11:34:46.480Z,99751.88
2023-09-20T11:37:19.110Z,99765.53
2023-09-20T11:39:50.004Z,99754.06
2023-09-20T11:42:28.612Z,99743.94
2023-09-20T11:45:07.246Z,99745.13
2023-09-20T11:47:45.717Z,99738.38
2023-09-20T11:50:15.297Z,99743.28
2023-09-20T11:52:46.513Z,99763.22
2023-09-20T11:55:16.746Z,99760.19
2023-09-20T11:57:46.434Z,99762.09
2023-09-20T12:00:18.098Z,99748.69
2023-09-20T12:02:46.913Z,99765.50
2023-09-20T12:05:15.439Z,99758.00
2023-09-20T12:07:54.324Z,99764.28
2023-09-20T12:10:24.020Z,99754.50
2023-09-20T12:12:53.888Z,99731.72
2023-09-20T12:15:23.837Z,99705.81
2023-09-20T12:17:53.050Z,99691.44
2023-09-20T12:20:21.302Z,99678.97
2023-09-20T12:22:49.396Z,99671.63
2023-09-20T12:25:18.017Z,99678.41
2023-09-20T12:27:48.017Z,99683.31
2023-09-20T12:30:16.061Z,99690.75
2023-09-20T12:32:44.393Z,99681.09
2023-09-20T12:35:14.454Z,99675.28
2023-09-20T12:37:42.240Z,99654.63
2023-09-20T12:40:11.774Z,99667.94
2023-09-20T12:42:40.153Z,99670.28
2023-09-20T12:45:10.435Z,99679.84
2023-09-20T12:47:41.462Z,99670.91
2023-09-20T12:50:13.560Z,99666.66
2023-09-20T12:52:43.631Z,99668.66
2023-09-20T12:55:12.002Z,99636.84
2023-09-20T12:57:40.129Z,99641.06
2023-09-20T13:00:15.433Z,99649.66
2023-09-20T13:02:46.686Z,99649.09
2023-09-20T13:05:14.983Z,99652.03
2023-09-20T13:07:42.722Z,99631.78
2023-09-20T13:10:15.011Z,99623.13
2023-09-20T13:12:43.072Z,99616.38
2023-09-20T13:15:13.968Z,99639.59
2023-09-20T13:17:42.273Z,99636.28
2023-09-20T13:20:11.253Z,99615.50
2023-09-20T13:22:38.972Z,99595.44
2023-09-20T13:25:09.375Z,99603.19
2023-09-20T13:27:37.193Z,99587.56
2023-09-20T13:30:11.068Z,99591.06
2023-09-20T13:32:40.426Z,99583.75
2023-09-20T13:35:12.285Z,99577.72
2023-09-20T13:37:41.880Z,99579.38
2023-09-20T13:40:14.039Z,99584.84
2023-09-20T13:42:43.134Z,99574.94
2023-09-20T13:45:12.628Z,99587.94
2023-09-20T13:47:43.028Z,99566.78
2023-09-20T13:50:12.059Z,99569.47
2023-09-20T13:52:41.513Z,99575.72
2023-09-20T13:55:12.380Z,99572.91
2023-09-20T13:57:40.224Z,99559.28
2023-09-20T14:00:12.574Z,99556.47
2023-09-20T14:02:42.043Z,99562.00
2023-09-20T14:05:15.598Z,99560.22
2023-09-20T14:07:45.562Z,99565.75
2023-09-20T14:10:14.158Z,99558.56
2023-09-20T14:12:43.467Z,99559.91
2023-09-20T14:15:13.614Z,99553.22
2023-09-20T14:17:46.308Z,99556.47
2023-09-20T14:20:17.444Z,99550.25
2023-09-20T14:22:45.373Z,99543.56
2023-09-20T14:25:13.182Z,99564.44
2023-09-20T14:27:41.910Z,99546.06
2023-09-20T14:30:11.594Z,99553.16
2023-09-20T14:32:40.505Z,99550.34
2023-09-20T14:35:14.036Z,99546.16
2023-09-20T14:37:42.201Z,99541.16
2023-09-20T14:40:14.001Z,99543.50
2023-09-20T14:42:44.953Z,99539.81
2023-09-20T14:45:17.794Z,99534.75
2023-09-20T14:47:45.959Z,99538.09
2023-09-20T14:50:15.800Z,99539.34
2023-09-20T14:52:44.620Z,99535.06
2023-09-20T14:55:13.792Z,99540.78
2023-09-20T14:57:43.152Z,99523.47
2023-09-20T15:00:17.776Z,99533.09
2023-09-20T15:02:45.768Z,99530.25
2023-09-20T15:05:16.058Z,99526.88
2023-09-20T15:07:44.388Z,99527.13
2023-09-20T15:10:15.206Z,99521.25
2023-09-20T15:12:47.035Z,99516.56
2023-09-20T15:15:15.751Z,99508.56
2023-09-20T15:17:44.303Z,99516.28
2023-09-20T15:20:14.778Z,99516.28
2023-09-20T15:22:45.564Z,99514.53
2023-09-20T15:25:15.945Z,99519.22
2023-09-20T15:27:45.689Z,99513.16
2023-09-20T15:30:15.122Z,99517.38
2023-09-20T15:32:43.672Z,99511.94
2023-09-20T15:35:11.992Z,99504.22
2023-09-20T15:37:45.786Z,99496.44
2023-09-20T15:40:17.319Z,99498.72
2023-09-20T15:42:47.763Z,99502.97
2023-09-20T15:45:19.245Z,99501.19
2023-09-20T15:47:47.709Z,99502.81
2023-09-20T15:50:15.917Z,99491.31
2023-09-20T15:52:43.762Z,99495.03
2023-09-20T15:55:16.412Z,99495.25
2023-09-20T15:57:47.169Z,99488.69
2023-09-20T16:00:17.338Z,99504.34
2023-09-20T16:02:47.046Z,99493.56
2023-09-20T16:05:16.432Z,99490.59
2023-09-20T16:07:44.757Z,99491.13
2023-09-20T16:10:17.550Z,99484.13
2023-09-20T16:12:47.727Z,99485.69
2023-09-20T16:15:17.286Z,99490.84
2023-09-20T16:17:45.765Z,99483.59
2023-09-20T16:20:15.789Z,99484.78
2023-09-20T16:22:44.513Z,99487.13
2023-09-20T16:25:13.240Z,99482.28
2023-09-20T16:27:41.035Z,99487.19
2023-09-20T16:30:12.648Z,99475.66
2023-09-20T16:32:44.118Z,99479.56
2023-09-20T16:35:13.097Z,99476.25
2023-09-20T16:37:40.953Z,99472.63
2023-09-20T16:40:09.949Z,99484.94
2023-09-20T16:42:37.833Z,99478.59
2023-09-20T16:45:06.479Z,99483.66
2023-09-20T16:47:35.765Z,99485.69
2023-09-20T16:50:03.534Z,99484.56
2023-09-20T16:52:31.238Z,99480.91
2023-09-20T16:54:59.113Z,99488.88
2023-09-20T16:57:27.314Z,99477.28
2023-09-20T16:59:55.038Z,99478.13
2023-09-20T17:02:24.912Z,99487.59
2023-09-20T17:04:55.441Z,99485.41
2023-09-20T17:07:24.841Z,99487.91
2023-09-20T17:09:52.741Z,99490.41
2023-09-20T17:12:20.830Z,99485.09
2023-09-20T17:14:48.699Z,99490.22
2023-09-20T17:17:16.648Z,99477.66
2023-09-20T17:19:44.322Z,99484.28
2023-09-20T17:22:14.484Z,99483.78
2023-09-20T17:24:42.161Z,99484.28
2023-09-20T17:27:27.013Z,99483.09
2023-09-20T17:29:59.027Z,99480.13
2023-09-20T17:32:26.984Z,99491.81
2023-09-20T17:34:55.630Z,99493.81
2023-09-20T17:37:25.146Z,99493.94
2023-09-20T17:39:53.277Z,99492.56
2023-09-20T17:42:21.176Z,99493.41
2023-09-20T17:44:49.320Z,99497.03
2023-09-20T17:47:17.202Z,99491.41
2023-09-20T17:49:44.852Z,99492.34
2023-09-20T17:52:12.626Z,99496.28
2023-09-20T17:54:41.794Z,99501.28
2023-09-20T17:57:10.302Z,99502.00
2023-09-20T17:59:39.682Z,99506.00
2023-09-20T18:02:10.540Z,99507.44
2023-09-20T18:04:40.356Z,99506.78
2023-09-20T18:07:08.119Z,99504.72
2023-09-20T18:09:36.134Z,99507.03
2023-09-20T18:12:05.650Z,99507.16
2023-09-20T18:14:33.547Z,99504.66
2023-09-20T18:17:01.836Z,99511.63
2023-09-20T18:19:30.090Z,99504.47
2023-09-20T18:21:58.432Z,99507.41
2023-09-20T18:24:27.206Z,99513.28
2023-09-20T18:26:55.911Z,99505.97
2023-09-20T18:29:25.199Z,99506.25
2023-09-20T18:31:53.253Z,99505.72
2023-09-20T18:34:22.022Z,99504.59
2023-09-20T18:36:52.429Z,99514.16
2023-09-20T18:39:20.113Z,99516.50
2023-09-20T18:41:47.968Z,99515.88
2023-09-20T18:44:15.812Z,99509.63
2023-09-20T18:46:47.149Z,99513.00
2023-09-20T18:49:14.963Z,99511.63
2023-09-20T18:51:43.542Z,99507.31
2023-09-20T18:54:14.259Z,99516.66
2023-09-20T18:56:43.024Z,99513.47
2023-09-20T18:59:13.167Z,99513.53
2023-09-20T19:01:42.258Z,99503.63
2023-09-20T19:04:11.509Z,99508.78
2023-09-20T19:06:41.474Z,99509.34
2023-09-20T19:09:09.628Z,99507.97
2023-09-20T19:11:37.626Z,99508.44
2023-09-20T19:14:08.105Z,99503.28
2023-09-20T19:16:36.137Z,99509.66
2023-09-20T19:19:04.037Z,99510.78
2023-09-20T19:21:34.519Z,99495.91
2023-09-20T19:24:06.791Z,99508.88
2023-09-20T19:26:35.465Z,99503.84
2023-09-20T19:29:03.375Z,99503.59
2023-09-20T19:31:31.440Z,99501.69
2023-09-20T19:33:59.247Z,99502.53
2023-09-20T19:36:29.923Z,99502.53
2023-09-20T19:38:59.387Z,99505.28
2023-09-20T19:41:30.473Z,99506.84
2023-09-20T19:44:01.676Z,99507.03
2023-09-20T19:46:29.941Z,99502.56
2023-09-20T19:48:57.783Z,99506.03
2023-09-20T19:51:25.699Z,99491.31
2023-09-20T19:53:55.369Z,99488.78
2023-09-20T19:56:25.324Z,99500.91
2023-09-20T19:58:55.906Z,99500.06
2023-09-20T20:01:25.258Z,99499.09
2023-09-20T20:03:53.216Z,99501.75
2023-09-20T20:06:21.364Z,99501.28
2023-09-20T20:08:49.249Z,99499.34
2023-09-20T20:11:20.762Z,99502.84
2023-09-20T20:13:49.992Z,99504.59
2023-09-20T20:16:19.063Z,99510.34
2023-09-20T20:18:47.691Z,99503.25
2023-09-20T20:21:16.505Z,99496.97
2023-09-20T20:23:45.282Z,99504.50
2023-09-20T20:26:13.829Z,99507.16
2023-09-20T20:28:42.562Z,99507.16
2023-09-20T20:31:12.075Z,99499.25
2023-09-20T20:33:40.827Z,99507.31
2023-09-20T20:36:09.889Z,99501.47
2023-09-20T20:38:39.377Z,99505.34
2023-09-20T20:41:08.441Z,99491.63
2023-09-20T20:43:37.961Z,99497.72
2023-09-20T20:46:17.005Z,99497.31
2023-09-20T20:48:46.192Z,99495.63
2023-09-20T20:51:15.798Z,99503.41
2023-09-20T20:53:48.016Z,99497.31
2023-09-20T20:56:18.074Z,99484.13
2023-09-20T20:58:47.613Z,99488.84
2023-09-20T21:01:17.105Z,99493.69
2023-09-20T21:03:45.934Z,99481.50
2023-09-20T21:06:15.403Z,99480.00
2023-09-20T21:08:44.421Z,99483.84
2023-09-20T21:11:11.772Z,99487.16
2023-09-20T21:13:39.837Z,99483.72
2023-09-20T21:16:08.659Z,99482.72
2023-09-20T21:18:40.279Z,99483.28
2023-09-20T21:21:08.845Z,99484.75
2023-09-20T21:23:37.070Z,99483.34
2023-09-20T21:26:06.509Z,99485.09
2023-09-20T21:28:34.244Z,99483.53
2023-09-20T21:31:02.724Z,99480.34
2023-09-20T21:33:31.375Z,99484.22
2023-09-20T21:36:00.681Z,99481.06
2023-09-20T21:38:29.018Z,99481.91
2023-09-20T21:40:56.805Z,99480.34
2023-09-20T21:43:24.881Z,99473.84
2023-09-20T21:45:53.146Z,99467.66
2023-09-20T21:48:22.459Z,99475.13
2023-09-20T21:50:50.657Z,99476.53
2023-09-20T21:53:20.024Z,99480.22
2023-09-20T21:55:48.033Z,99472.22
2023-09-20T21:58:16.803Z,99471.38
2023-09-20T22:00:45.768Z,99467.06
2023-09-20T22:03:14.750Z,99458.88
2023-09-20T22:05:42.739Z,99459.78
2023-09-20T22:08:11.821Z,99467.25
2023-09-20T22:10:43.369Z,99454.25
2023-09-20T22:13:11.532Z,99453.78
2023-09-20T22:15:42.004Z,99456.53
2023-09-20T22:18:18.796Z,99455.03
2023-09-20T22:20:47.506Z,99454.28
2023-09-20T22:23:16.048Z,99455.22
2023-09-20T22:25:45.517Z,99451.00
2023-09-20T22:28:15.141Z,99447.47
2023-09-20T22:30:43.159Z,99442.84
2023-09-20T22:33:10.965Z,99447.41
2023-09-20T22:35:38.892Z,99446.44
2023-09-20T22:38:06.803Z,99442.03
2023-09-20T22:40:34.493Z,99437.06
2023-09-20T22:43:05.494Z,99432.91
2023-09-20T22:45:35.542Z,99437.00
2023-09-20T22:48:07.297Z,99430.63
2023-09-20T22:50:40.385Z,99427.69
2023-09-20T22:53:10.751Z,99421.47
2023-09-20T22:55:41.635Z,99424.41
2023-09-20T22:58:14.334Z,99428.38
2023-09-20T23:00:45.086Z,99427.59
2023-09-20T23:03:14.747Z,99423.47
2023-09-20T23:05:44.254Z,99420.56
2023-09-20T23:08:15.348Z,99417.00
2023-09-20T23:10:45.993Z,99416.59
2023-09-20T23:13:20.436Z,99413.16
2023-09-20T23:15:53.276Z,99414.88
2023-09-20T23:18:23.013Z,99411.03
2023-09-20T23:20:51.707Z,99412.16
2023-09-20T23:23:20.820Z,99405.78
2023-09-20T23:25:51.139Z,99407.22
2023-09-20T23:28:20.775Z,99400.63
2023-09-20T23:30:54.071Z,99409.22
2023-09-20T23:33:28.514Z,99400.25
2023-09-20T23:35:59.104Z,99398.47
2023-09-20T23:38:30.494Z,99403.13
2023-09-20T23:41:06.506Z,99395.41
2023-09-20T23:43:35.904Z,99396.63
2023-09-20T23:46:05.888Z,99404.56
2023-09-20T23:48:34.062Z,99395.13
2023-09-20T23:51:03.231Z,99385.22
2023-09-20T23:53:31.010Z,99391.41
2023-09-20T23:55:59.432Z,99383.44
2023-09-20T23:58:28.393Z,99386.28
